Time;durP1;ratioP1;P1;durP2;ratioP2;P2;SDS_P1;SDS_P2;PMS_P1;PMS_P2;Temp;Humidity;BMP_temperature;BMP_pressure;BME280_temperature;BME280_humidity;BME280_pressure;Samples;Min_cycle;Max_cycle;Signal;HPM_P1;HPM_P2
2022/07/24 00:00:51;;;;;;;8.53;6.90;;;;;;;;;;5021759;28;20177;-79
2022/07/24 00:03:16;;;;;;;7.00;6.30;;;;;;;;;;5006489;28;20319;-80
2022/07/24 00:05:42;;;;;;;7.47;6.87;;;;;;;;;;5007129;28;20181;-80
2022/07/24 00:08:07;;;;;;;6.60;6.00;;;;;;;;;;5008447;28;20366;-80
2022/07/24 00:10:32;;;;;;;6.87;6.17;;;;;;;;;;5010952;28;20217;-80
2022/07/24 00:12:58;;;;;;;6.70;6.07;;;;;;;;;;5009354;28;20193;-79
2022/07/24 00:15:23;;;;;;;7.10;6.50;;;;;;;;;;5013647;28;20211;-80
2022/07/24 00:17:48;;;;;;;6.83;6.23;;;;;;;;;;5008853;28;20181;-80
2022/07/24 00:20:13;;;;;;;7.63;6.93;;;;;;;;;;5024863;28;20191;-80
2022/07/24 00:22:39;;;;;;;7.20;6.60;;;;;;;;;;5010438;28;20181;-78
2022/07/24 00:25:04;;;;;;;6.87;6.23;;;;;;;;;;5005826;28;20358;-80
2022/07/24 00:27:29;;;;;;;7.40;6.67;;;;;;;;;;5007048;28;20190;-80
2022/07/24 00:29:54;;;;;;;5.97;5.47;;;;;;;;;;5007992;28;20211;-80
2022/07/24 00:32:20;;;;;;;6.60;6.10;;;;;;;;;;5009943;28;20188;-81
2022/07/24 00:34:45;;;;;;;7.13;6.43;;;;;;;;;;5009136;28;20200;-80
2022/07/24 00:37:10;;;;;;;7.43;6.73;;;;;;;;;;5009368;28;20219;-80
2022/07/24 00:39:36;;;;;;;7.00;6.23;;;;;;;;;;5006324;28;20172;-80
2022/07/24 00:42:01;;;;;;;7.80;6.33;;;;;;;;;;5008570;28;20274;-79
2022/07/24 00:44:26;;;;;;;7.10;6.50;;;;;;;;;;5004950;28;20200;-80
2022/07/24 00:46:51;;;;;;;7.03;6.43;;;;;;;;;;5008165;28;20176;-79
2022/07/24 00:49:17;;;;;;;7.67;6.97;;;;;;;;;;5010614;28;20186;-79
2022/07/24 00:51:43;;;;;;;7.40;6.73;;;;;;;;;;5003378;28;20467;-80
2022/07/24 00:54:10;;;;;;;7.57;6.77;;;;;;;;;;5009013;28;20181;-80
2022/07/24 00:56:35;;;;;;;7.17;6.50;;;;;;;;;;5008289;28;20244;-80
2022/07/24 00:59:01;;;;;;;6.70;6.10;;;;;;;;;;5008408;28;20211;-80
2022/07/24 01:01:26;;;;;;;7.70;6.00;;;;;;;;;;5007899;28;20180;-80
2022/07/24 01:03:52;;;;;;;7.93;6.70;;;;;;;;;;5004673;28;20202;-80
2022/07/24 01:06:19;;;;;;;7.13;6.40;;;;;;;;;;5011548;28;20191;-79
2022/07/24 01:08:44;;;;;;;7.30;6.70;;;;;;;;;;5011061;28;20312;-80
2022/07/24 01:11:10;;;;;;;7.07;6.47;;;;;;;;;;5015955;28;20275;-80
2022/07/24 01:13:35;;;;;;;7.10;6.27;;;;;;;;;;5007508;28;20191;-80
2022/07/24 01:16:01;;;;;;;8.27;6.40;;;;;;;;;;5009039;28;20208;-80
2022/07/24 01:18:26;;;;;;;6.80;6.13;;;;;;;;;;5013125;28;20223;-78
2022/07/24 01:20:51;;;;;;;7.53;6.70;;;;;;;;;;5005051;28;20183;-80
2022/07/24 01:23:16;;;;;;;7.17;6.47;;;;;;;;;;5011630;28;20227;-79
2022/07/24 01:25:41;;;;;;;6.87;6.20;;;;;;;;;;5009623;28;20193;-79
2022/07/24 01:28:07;;;;;;;7.07;6.37;;;;;;;;;;5008258;28;20184;-80
2022/07/24 01:30:32;;;;;;;9.07;6.83;;;;;;;;;;5001861;28;20177;-79
2022/07/24 01:32:58;;;;;;;7.00;6.30;;;;;;;;;;5016159;28;20193;-79
2022/07/24 01:35:23;;;;;;;7.27;6.67;;;;;;;;;;5018548;28;20203;-80
2022/07/24 01:37:48;;;;;;;7.33;6.73;;;;;;;;;;5009648;28;20174;-79
2022/07/24 01:40:13;;;;;;;7.10;6.40;;;;;;;;;;5018002;28;20184;-80
2022/07/24 01:42:38;;;;;;;7.33;6.60;;;;;;;;;;5012578;28;20269;-80
2022/07/24 01:45:04;;;;;;;7.60;6.97;;;;;;;;;;5013784;28;20214;-80
2022/07/24 01:47:29;;;;;;;7.03;6.17;;;;;;;;;;5016468;28;20187;-80
2022/07/24 01:49:54;;;;;;;6.87;6.27;;;;;;;;;;5017896;28;20181;-80
2022/07/24 01:52:20;;;;;;;6.77;6.17;;;;;;;;;;5009473;28;20181;-80
2022/07/24 01:54:45;;;;;;;6.77;6.17;;;;;;;;;;5009358;28;20196;-78
2022/07/24 01:57:10;;;;;;;7.33;6.73;;;;;;;;;;5016216;28;20196;-79
2022/07/24 01:59:35;;;;;;;7.20;5.97;;;;;;;;;;5013611;28;20181;-80
2022/07/24 02:02:01;;;;;;;7.00;6.30;;;;;;;;;;5011857;28;20189;-79
2022/07/24 02:04:26;;;;;;;6.40;5.90;;;;;;;;;;5016563;28;20175;-80
2022/07/24 02:06:51;;;;;;;6.60;6.00;;;;;;;;;;5010352;28;20247;-80
2022/07/24 02:09:16;;;;;;;7.03;6.33;;;;;;;;;;5008195;28;20230;-79
2022/07/24 02:11:41;;;;;;;6.90;6.30;;;;;;;;;;5009756;28;20200;-80
2022/07/24 02:14:07;;;;;;;5.93;5.43;;;;;;;;;;5010968;28;20180;-79
2022/07/24 02:16:32;;;;;;;7.43;6.73;;;;;;;;;;5007577;28;20212;-80
2022/07/24 02:18:57;;;;;;;6.90;6.30;;;;;;;;;;5006966;28;20181;-80
2022/07/24 02:21:22;;;;;;;8.13;6.83;;;;;;;;;;5010435;28;20212;-80
2022/07/24 02:23:47;;;;;;;7.17;6.47;;;;;;;;;;5013744;28;20236;-80
2022/07/24 02:26:13;;;;;;;7.17;6.47;;;;;;;;;;5018758;28;20182;-80
2022/07/24 02:28:38;;;;;;;6.80;6.10;;;;;;;;;;5010264;28;20187;-80
2022/07/24 02:31:03;;;;;;;7.87;7.17;;;;;;;;;;5013887;28;20210;-79
2022/07/24 02:33:28;;;;;;;7.23;6.63;;;;;;;;;;5009893;28;20182;-80
2022/07/24 02:35:53;;;;;;;7.73;7.03;;;;;;;;;;5011187;28;20202;-79
2022/07/24 02:38:19;;;;;;;7.10;6.50;;;;;;;;;;5010847;28;20183;-80
2022/07/24 02:40:44;;;;;;;7.77;6.60;;;;;;;;;;5013164;28;20402;-80
2022/07/24 02:43:09;;;;;;;7.20;6.53;;;;;;;;;;5009971;28;20184;-80
2022/07/24 02:45:34;;;;;;;6.73;6.13;;;;;;;;;;5014989;28;20180;-79
2022/07/24 02:47:59;;;;;;;7.20;6.33;;;;;;;;;;5005769;28;20272;-80
2022/07/24 02:50:29;;;;;;;7.47;6.80;;;;;;;;;;5010135;28;20191;-80
2022/07/24 02:52:55;;;;;;;8.73;6.73;;;;;;;;;;5006385;28;20565;-79
2022/07/24 02:55:20;;;;;;;6.93;6.30;;;;;;;;;;5009476;28;20216;-80
2022/07/24 02:57:45;;;;;;;7.57;6.87;;;;;;;;;;5010744;28;20176;-80
2022/07/24 03:00:12;;;;;;;7.47;6.77;;;;;;;;;;5011781;28;20178;-80
2022/07/24 03:02:37;;;;;;;6.90;6.00;;;;;;;;;;5010205;28;20178;-80
2022/07/24 03:05:03;;;;;;;8.20;6.73;;;;;;;;;;5009600;28;20179;-80
2022/07/24 03:07:28;;;;;;;7.27;6.23;;;;;;;;;;5016141;28;20198;-79
2022/07/24 03:09:54;;;;;;;7.03;6.33;;;;;;;;;;5011669;28;20232;-79
2022/07/24 03:12:19;;;;;;;7.23;6.33;;;;;;;;;;5010774;28;20255;-80
2022/07/24 03:14:44;;;;;;;7.63;6.90;;;;;;;;;;5009634;28;20227;-80
2022/07/24 03:17:09;;;;;;;7.57;6.87;;;;;;;;;;5011924;28;20217;-80
2022/07/24 03:19:35;;;;;;;6.83;6.07;;;;;;;;;;5012183;28;20181;-80
2022/07/24 03:22:00;;;;;;;7.13;6.43;;;;;;;;;;5007428;28;20246;-79
2022/07/24 03:24:25;;;;;;;7.67;6.80;;;;;;;;;;5011452;28;20189;-80
2022/07/24 03:26:50;;;;;;;7.67;7.00;;;;;;;;;;5011686;28;20172;-79
2022/07/24 03:29:15;;;;;;;7.90;7.10;;;;;;;;;;5007228;28;20203;-81
2022/07/24 03:31:41;;;;;;;6.97;6.33;;;;;;;;;;5011284;28;20519;-79
2022/07/24 03:34:06;;;;;;;8.30;7.50;;;;;;;;;;5010888;28;20186;-79
2022/07/24 03:36:32;;;;;;;7.90;7.20;;;;;;;;;;5010619;28;20224;-79
2022/07/24 03:38:57;;;;;;;8.00;7.30;;;;;;;;;;5014922;28;20192;-80
2022/07/24 03:41:22;;;;;;;7.63;6.93;;;;;;;;;;5006745;28;20181;-80
2022/07/24 03:43:47;;;;;;;7.17;6.53;;;;;;;;;;5011813;28;20250;-79
2022/07/24 03:46:12;;;;;;;7.50;6.53;;;;;;;;;;5009313;28;20217;-79
2022/07/24 03:48:38;;;;;;;7.43;6.83;;;;;;;;;;5015250;28;20182;-80
2022/07/24 03:51:03;;;;;;;7.90;7.20;;;;;;;;;;5008091;28;20245;-80
2022/07/24 03:53:28;;;;;;;8.23;7.10;;;;;;;;;;5003839;28;20261;-80
2022/07/24 03:55:53;;;;;;;8.13;7.43;;;;;;;;;;5006077;28;20241;-79
2022/07/24 03:58:18;;;;;;;8.07;7.27;;;;;;;;;;5012988;28;20224;-80
2022/07/24 04:00:44;;;;;;;8.20;7.40;;;;;;;;;;5011160;28;20202;-80
2022/07/24 04:03:09;;;;;;;7.67;6.97;;;;;;;;;;5008344;28;20188;-80
2022/07/24 04:05:34;;;;;;;8.20;7.40;;;;;;;;;;5014499;28;20392;-80
2022/07/24 04:07:59;;;;;;;7.87;7.10;;;;;;;;;;5010948;28;20183;-79
2022/07/24 04:10:24;;;;;;;8.27;7.57;;;;;;;;;;5029070;28;20231;-80
2022/07/24 04:12:50;;;;;;;7.60;6.90;;;;;;;;;;5008910;28;20195;-79
2022/07/24 04:15:15;;;;;;;8.30;7.47;;;;;;;;;;5011566;28;20305;-79
2022/07/24 04:17:41;;;;;;;7.93;7.13;;;;;;;;;;5011863;28;20190;-80
2022/07/24 04:20:07;;;;;;;8.90;7.37;;;;;;;;;;5007433;28;20179;-80
2022/07/24 04:22:32;;;;;;;8.13;7.43;;;;;;;;;;5009443;28;20423;-80
2022/07/24 04:24:57;;;;;;;8.30;7.37;;;;;;;;;;5010553;28;20191;-79
2022/07/24 04:27:22;;;;;;;7.40;6.77;;;;;;;;;;5017105;28;20231;-80
2022/07/24 04:32:50;;;;;;;7.97;7.17;;;;;;;;;;5009110;28;20181;-79
2022/07/24 04:35:15;;;;;;;7.73;7.03;;;;;;;;;;5007231;28;20199;-79
2022/07/24 04:37:40;;;;;;;9.37;7.23;;;;;;;;;;5009371;28;20230;-80
2022/07/24 04:40:09;;;;;;;9.13;7.67;;;;;;;;;;5004847;28;20178;-80
2022/07/24 04:42:34;;;;;;;8.57;7.87;;;;;;;;;;5008290;28;20182;-80
2022/07/24 04:44:59;;;;;;;8.00;7.23;;;;;;;;;;5006436;28;20194;-80
2022/07/24 04:47:24;;;;;;;7.70;7.00;;;;;;;;;;5006041;28;20264;-80
2022/07/24 04:49:49;;;;;;;8.63;7.80;;;;;;;;;;5005083;28;20576;-80
2022/07/24 04:52:14;;;;;;;8.30;7.43;;;;;;;;;;5004033;28;20191;-80
2022/07/24 04:54:40;;;;;;;7.90;7.20;;;;;;;;;;5002859;28;20190;-81
2022/07/24 04:57:05;;;;;;;8.23;7.47;;;;;;;;;;5007643;28;20199;-80
2022/07/24 04:59:30;;;;;;;8.10;7.40;;;;;;;;;;5005246;28;20279;-80
2022/07/24 05:01:55;;;;;;;8.10;7.40;;;;;;;;;;5008477;28;20173;-80
2022/07/24 05:04:21;;;;;;;8.10;7.40;;;;;;;;;;5006061;28;20180;-79
2022/07/24 05:06:46;;;;;;;8.70;7.90;;;;;;;;;;5017824;28;20184;-81
2022/07/24 05:09:11;;;;;;;8.93;8.03;;;;;;;;;;5011464;28;20296;-80
2022/07/24 05:11:36;;;;;;;8.97;7.53;;;;;;;;;;5007551;28;20232;-80
2022/07/24 05:14:02;;;;;;;8.90;7.40;;;;;;;;;;5005758;28;20177;-79
2022/07/24 05:16:27;;;;;;;7.97;7.17;;;;;;;;;;5005607;28;20271;-79
2022/07/24 05:18:52;;;;;;;8.60;7.70;;;;;;;;;;5007275;28;20182;-80
2022/07/24 05:21:17;;;;;;;9.33;8.53;;;;;;;;;;5005986;28;20187;-81
2022/07/24 05:23:45;;;;;;;16.47;14.77;;;;;;;;;;5005224;28;20204;-80
2022/07/24 05:26:11;;;;;;;14.03;12.30;;;;;;;;;;5008347;28;20193;-80
2022/07/24 05:28:36;;;;;;;8.93;7.97;;;;;;;;;;5007712;28;20211;-80
2022/07/24 05:31:01;;;;;;;8.90;8.10;;;;;;;;;;5011778;28;20230;-79
2022/07/24 05:33:26;;;;;;;8.20;7.43;;;;;;;;;;5009332;28;20200;-79
2022/07/24 05:35:52;;;;;;;7.57;6.87;;;;;;;;;;5006907;28;20205;-80
2022/07/24 05:38:17;;;;;;;8.47;7.60;;;;;;;;;;5004315;28;20185;-80
2022/07/24 05:40:42;;;;;;;8.50;7.60;;;;;;;;;;5008162;28;21123;-80
2022/07/24 05:43:07;;;;;;;7.63;6.83;;;;;;;;;;5006810;28;20508;-81
2022/07/24 05:45:32;;;;;;;9.10;7.87;;;;;;;;;;5008568;28;20187;-80
2022/07/24 05:48:00;;;;;;;7.70;7.00;;;;;;;;;;5012944;28;20190;-79
2022/07/24 05:50:25;;;;;;;8.30;7.50;;;;;;;;;;5010743;28;20179;-80
2022/07/24 05:52:50;;;;;;;9.50;8.03;;;;;;;;;;5008153;28;20174;-78
2022/07/24 05:55:15;;;;;;;9.67;8.57;;;;;;;;;;5004121;28;20195;-80
2022/07/24 05:57:41;;;;;;;8.27;7.57;;;;;;;;;;5013352;28;20176;-80
2022/07/24 06:00:07;;;;;;;8.33;7.20;;;;;;;;;;5002814;28;20183;-80
2022/07/24 06:02:32;;;;;;;8.90;8.00;;;;;;;;;;5006709;28;20178;-78
2022/07/24 06:04:57;;;;;;;10.20;7.83;;;;;;;;;;5006294;28;20253;-79
2022/07/24 06:07:22;;;;;;;9.27;7.97;;;;;;;;;;5003111;28;20242;-80
2022/07/24 06:09:48;;;;;;;8.50;7.70;;;;;;;;;;5007043;28;20231;-80
2022/07/24 06:12:13;;;;;;;10.17;7.83;;;;;;;;;;5001874;28;20275;-79
2022/07/24 06:14:38;;;;;;;9.13;7.90;;;;;;;;;;5011382;28;20212;-78
2022/07/24 06:17:03;;;;;;;9.00;8.10;;;;;;;;;;5008357;28;20242;-78
2022/07/24 06:19:29;;;;;;;9.00;8.17;;;;;;;;;;5014465;28;20218;-80
2022/07/24 06:21:54;;;;;;;8.83;7.90;;;;;;;;;;5005796;28;20180;-80
2022/07/24 06:24:19;;;;;;;18.90;8.13;;;;;;;;;;5004667;28;20286;-80
2022/07/24 06:26:45;;;;;;;8.13;7.43;;;;;;;;;;5004459;28;20207;-79
2022/07/24 06:29:10;;;;;;;8.37;7.63;;;;;;;;;;5010097;28;20188;-80
2022/07/24 06:31:35;;;;;;;9.27;8.37;;;;;;;;;;5013081;28;20181;-80
2022/07/24 06:34:00;;;;;;;10.07;8.10;;;;;;;;;;5015530;28;20192;-79
2022/07/24 06:36:26;;;;;;;8.57;7.57;;;;;;;;;;5008614;28;20247;-80
2022/07/24 06:38:52;;;;;;;8.20;7.40;;;;;;;;;;5008545;28;20208;-80
2022/07/24 06:41:17;;;;;;;8.33;7.50;;;;;;;;;;5005743;28;20180;-79
2022/07/24 06:43:42;;;;;;;8.50;7.70;;;;;;;;;;5012165;28;20179;-80
2022/07/24 06:46:07;;;;;;;9.53;7.77;;;;;;;;;;5005830;28;20181;-79
2022/07/24 06:48:33;;;;;;;10.47;7.97;;;;;;;;;;5015643;28;20192;-80
2022/07/24 06:50:58;;;;;;;8.63;7.83;;;;;;;;;;5010629;28;20185;-83
2022/07/24 06:53:23;;;;;;;8.07;7.27;;;;;;;;;;5011158;28;20215;-79
2022/07/24 06:55:52;;;;;;;8.93;8.13;;;;;;;;;;5016740;28;20373;-80
2022/07/24 06:58:17;;;;;;;8.33;7.63;;;;;;;;;;5008967;28;20319;-79
2022/07/24 07:00:42;;;;;;;8.37;7.57;;;;;;;;;;5010838;28;20276;-80
2022/07/24 07:03:08;;;;;;;8.40;7.50;;;;;;;;;;5013526;28;20189;-80
2022/07/24 07:05:33;;;;;;;11.17;7.77;;;;;;;;;;5008660;28;20221;-80
2022/07/24 07:07:58;;;;;;;9.87;8.07;;;;;;;;;;5010264;28;20182;-78
2022/07/24 07:10:23;;;;;;;8.40;7.57;;;;;;;;;;5009598;28;20253;-79
2022/07/24 07:12:49;;;;;;;9.27;8.27;;;;;;;;;;4998671;28;20191;-79
2022/07/24 07:15:14;;;;;;;8.00;7.23;;;;;;;;;;5003507;28;20222;-79
2022/07/24 07:17:40;;;;;;;8.40;7.20;;;;;;;;;;5004409;28;20191;-80
2022/07/24 07:20:06;;;;;;;7.53;6.73;;;;;;;;;;5001979;28;20190;-80
2022/07/24 07:22:31;;;;;;;8.00;7.30;;;;;;;;;;5003315;28;20190;-80
2022/07/24 07:24:56;;;;;;;8.37;7.40;;;;;;;;;;5003839;28;20187;-81
2022/07/24 07:27:22;;;;;;;6.80;6.07;;;;;;;;;;5002186;28;20179;-80
2022/07/24 07:29:47;;;;;;;9.03;6.80;;;;;;;;;;5000379;28;20285;-78
2022/07/24 07:32:12;;;;;;;8.63;7.77;;;;;;;;;;5004302;28;20311;-80
2022/07/24 07:34:37;;;;;;;7.37;6.77;;;;;;;;;;5005390;28;20193;-80
2022/07/24 07:37:03;;;;;;;7.57;6.77;;;;;;;;;;5002698;28;20182;-78
2022/07/24 07:39:28;;;;;;;8.50;7.63;;;;;;;;;;5019444;28;20217;-80
2022/07/24 07:41:53;;;;;;;7.33;6.73;;;;;;;;;;5003933;28;20179;-80
2022/07/24 07:44:18;;;;;;;6.95;6.35;;;;;;;;;;5003777;28;20179;-80
2022/07/24 07:46:43;;;;;;;7.67;6.97;;;;;;;;;;5003564;28;20208;-81
2022/07/24 07:49:09;;;;;;;7.43;6.73;;;;;;;;;;5002345;28;20217;-81
2022/07/24 07:51:34;;;;;;;7.80;6.53;;;;;;;;;;5003580;28;20183;-80
2022/07/24 07:53:59;;;;;;;8.38;7.20;;;;;;;;;;5004886;28;20190;-80
2022/07/24 07:56:24;;;;;;;8.70;7.00;;;;;;;;;;5002453;28;20207;-80
2022/07/24 07:58:50;;;;;;;6.97;6.30;;;;;;;;;;5003164;28;20186;-80
2022/07/24 08:01:15;;;;;;;7.28;6.68;;;;;;;;;;5002899;28;20175;-79
2022/07/24 08:03:40;;;;;;;6.90;6.17;;;;;;;;;;5001697;28;20211;-78
2022/07/24 08:06:05;;;;;;;6.72;6.07;;;;;;;;;;5001430;28;20210;-80
2022/07/24 08:08:30;;;;;;;6.93;6.30;;;;;;;;;;5002792;28;20227;-80
2022/07/24 08:10:57;;;;;;;7.32;6.32;;;;;;;;;;5003122;28;20176;-80
2022/07/24 08:13:22;;;;;;;7.10;6.40;;;;;;;;;;5002324;28;20192;-80
2022/07/24 08:15:47;;;;;;;7.28;6.63;;;;;;;;;;5004059;28;20265;-80
2022/07/24 08:18:12;;;;;;;7.25;6.55;;;;;;;;;;5002511;28;20278;-80
2022/07/24 08:20:38;;;;;;;6.95;6.30;;;;;;;;;;5001211;28;20243;-79
2022/07/24 08:23:03;;;;;;;6.75;6.10;;;;;;;;;;5002539;28;20176;-81
2022/07/24 08:25:28;;;;;;;9.07;6.78;;;;;;;;;;5001451;28;20195;-81
2022/07/24 08:27:53;;;;;;;7.47;6.78;;;;;;;;;;5000839;28;20306;-79
2022/07/24 08:30:19;;;;;;;7.00;6.30;;;;;;;;;;5001765;28;20219;-81
2022/07/24 08:32:44;;;;;;;6.93;6.32;;;;;;;;;;5004429;28;20187;-80
2022/07/24 08:35:11;;;;;;;7.60;6.90;;;;;;;;;;5003324;28;20199;-80
2022/07/24 08:37:37;;;;;;;7.28;6.65;;;;;;;;;;5002966;28;20203;-81
2022/07/24 08:40:02;;;;;;;10.07;9.07;;;;;;;;;;4998668;28;20191;-79
2022/07/24 08:42:29;;;;;;;8.57;6.78;;;;;;;;;;5003667;28;20593;-79
2022/07/24 08:44:54;;;;;;;8.10;7.50;;;;;;;;;;5005682;28;20175;-80
2022/07/24 08:47:19;;;;;;;7.88;7.10;;;;;;;;;;5003403;28;21655;-80
2022/07/24 08:49:46;;;;;;;7.38;6.70;;;;;;;;;;5002751;28;20186;-80
2022/07/24 08:52:14;;;;;;;8.02;7.22;;;;;;;;;;4999803;28;20178;-79
2022/07/24 08:54:39;;;;;;;7.00;6.40;;;;;;;;;;4999097;28;20179;-81
2022/07/24 08:57:04;;;;;;;8.05;6.40;;;;;;;;;;5000431;28;20207;-80
2022/07/24 08:59:30;;;;;;;6.50;6.00;;;;;;;;;;5002102;28;20257;-81
2022/07/24 09:01:55;;;;;;;8.23;7.20;;;;;;;;;;5017634;28;20179;-79
2022/07/24 09:04:51;;;;;;;7.75;7.05;;;;;;;;;;5002238;28;20184;-79
2022/07/24 09:07:22;;;;;;;7.18;6.53;;;;;;;;;;4998638;28;20253;-82
2022/07/24 09:09:58;;;;;;;6.80;6.20;;;;;;;;;;5002673;28;20222;-81
2022/07/24 09:12:23;;;;;;;7.82;7.13;;;;;;;;;;4999544;28;20195;-81
2022/07/24 09:14:48;;;;;;;8.45;6.80;;;;;;;;;;4997140;28;20230;-80
2022/07/24 09:17:15;;;;;;;9.50;7.80;;;;;;;;;;5001178;28;20188;-81
2022/07/24 09:19:55;;;;;;;7.22;6.28;;;;;;;;;;4999962;28;20205;-81
2022/07/24 09:22:29;;;;;;;7.18;6.45;;;;;;;;;;5001476;28;20203;-81
2022/07/24 09:25:18;;;;;;;8.15;6.63;;;;;;;;;;5000596;28;20179;-80
2022/07/24 09:27:46;;;;;;;6.78;6.22;;;;;;;;;;4998048;28;20215;-81
2022/07/24 09:30:21;;;;;;;7.63;6.90;;;;;;;;;;5000704;28;20192;-79
2022/07/24 09:32:51;;;;;;;7.47;6.88;;;;;;;;;;5000387;28;20189;-81
2022/07/24 09:35:16;;;;;;;7.80;7.10;;;;;;;;;;5000036;28;20262;-80
2022/07/24 09:37:52;;;;;;;7.22;6.63;;;;;;;;;;5002678;28;20321;-80
2022/07/24 09:40:17;;;;;;;7.65;7.05;;;;;;;;;;5002171;28;20242;-80
2022/07/24 09:42:43;;;;;;;7.63;6.93;;;;;;;;;;4999280;28;20203;-82
2022/07/24 09:45:10;;;;;;;7.68;7.07;;;;;;;;;;5005679;28;20183;-81
2022/07/24 09:47:35;;;;;;;7.93;7.32;;;;;;;;;;5000957;28;20185;-81
2022/07/24 09:50:14;;;;;;;7.25;6.38;;;;;;;;;;4998320;28;20202;-80
2022/07/24 09:52:41;;;;;;;7.57;6.72;;;;;;;;;;5001489;28;20188;-80
2022/07/24 09:55:18;;;;;;;7.95;7.25;;;;;;;;;;5002958;28;20196;-81
2022/07/24 09:57:43;;;;;;;8.25;7.22;;;;;;;;;;5002771;28;20259;-81
2022/07/24 10:00:09;;;;;;;8.70;7.90;;;;;;;;;;5006400;28;20241;-81
2022/07/24 10:02:34;;;;;;;10.82;7.93;;;;;;;;;;5005072;28;20207;-81
2022/07/24 10:05:02;;;;;;;7.22;6.63;;;;;;;;;;5003447;28;20235;-81
2022/07/24 10:07:29;;;;;;;7.97;7.30;;;;;;;;;;5018591;28;20188;-80
2022/07/24 10:09:59;;;;;;;7.47;6.88;;;;;;;;;;5002470;28;20227;-79
2022/07/24 10:12:25;;;;;;;7.68;7.07;;;;;;;;;;5004703;28;20182;-81
2022/07/24 10:14:51;;;;;;;7.90;7.20;;;;;;;;;;5003274;28;20187;-81
2022/07/24 10:17:17;;;;;;;7.53;6.88;;;;;;;;;;5004125;28;20183;-82
2022/07/24 10:19:45;;;;;;;7.47;6.68;;;;;;;;;;5001791;28;20176;-80
2022/07/24 10:22:12;;;;;;;7.85;7.15;;;;;;;;;;5004320;28;20247;-81
2022/07/24 10:24:56;;;;;;;8.85;8.13;;;;;;;;;;5009180;28;20184;-80
2022/07/24 10:27:26;;;;;;;8.13;7.32;;;;;;;;;;5002713;28;20192;-79
2022/07/24 10:29:52;;;;;;;8.75;7.05;;;;;;;;;;5005196;28;20198;-81
2022/07/24 10:32:18;;;;;;;7.53;6.93;;;;;;;;;;5003614;28;20195;-82
2022/07/24 10:34:49;;;;;;;7.60;7.00;;;;;;;;;;5003741;28;20168;-82
2022/07/24 10:37:19;;;;;;;7.78;7.10;;;;;;;;;;5002968;28;20217;-82
2022/07/24 10:40:03;;;;;;;7.43;6.82;;;;;;;;;;5002882;28;20187;-82
2022/07/24 10:42:29;;;;;;;7.45;6.85;;;;;;;;;;5001530;28;20482;-82
2022/07/24 10:45:13;;;;;;;7.75;7.05;;;;;;;;;;5003305;28;20168;-82
2022/07/24 10:47:38;;;;;;;7.63;6.88;;;;;;;;;;5002800;28;20253;-81
2022/07/24 10:50:04;;;;;;;7.97;7.28;;;;;;;;;;5003677;28;20181;-81
2022/07/24 10:52:30;;;;;;;7.82;7.10;;;;;;;;;;5003733;28;20180;-82
2022/07/24 10:55:14;;;;;;;8.32;7.30;;;;;;;;;;5003299;28;20207;-81
2022/07/24 10:58:06;;;;;;;7.15;6.45;;;;;;;;;;4999294;28;20274;-80
2022/07/24 11:00:31;;;;;;;8.27;7.57;;;;;;;;;;5000779;28;20195;-82
2022/07/24 11:02:58;;;;;;;7.88;7.18;;;;;;;;;;5008362;28;20249;-83
2022/07/24 11:05:26;;;;;;;7.38;6.68;;;;;;;;;;5010405;28;20191;-82
2022/07/24 11:08:10;;;;;;;6.88;6.28;;;;;;;;;;5009810;28;20322;-82
2022/07/24 11:10:44;;;;;;;7.97;7.20;;;;;;;;;;5010584;28;20231;-81
2022/07/24 11:13:28;;;;;;;7.90;7.20;;;;;;;;;;5010672;28;20179;-81
2022/07/24 11:16:13;;;;;;;8.50;7.22;;;;;;;;;;5005220;28;20199;-82
2022/07/24 11:18:54;;;;;;;7.93;7.32;;;;;;;;;;4997715;28;20187;-82
2022/07/24 11:21:29;;;;;;;7.88;7.28;;;;;;;;;;5008651;28;21909;-82
2022/07/24 11:24:13;;;;;;;7.85;7.25;;;;;;;;;;5013376;28;20253;-82
2022/07/24 11:26:40;;;;;;;7.35;6.72;;;;;;;;;;5012138;28;20179;-82
2022/07/24 11:29:23;;;;;;;7.45;6.88;;;;;;;;;;5003083;28;20228;-80
2022/07/24 11:31:53;;;;;;;7.35;6.65;;;;;;;;;;5003162;28;20233;-82
2022/07/24 11:34:19;;;;;;;8.00;7.35;;;;;;;;;;5012354;28;20263;-82
2022/07/24 11:36:47;;;;;;;7.57;6.93;;;;;;;;;;5006611;28;20251;-81
2022/07/24 11:39:13;;;;;;;8.48;7.82;;;;;;;;;;5006840;28;20168;-82
2022/07/24 11:41:49;;;;;;;7.50;6.93;;;;;;;;;;5007437;28;20400;-81
2022/07/24 11:44:14;;;;;;;7.82;7.15;;;;;;;;;;5003007;28;20168;-83
2022/07/24 11:46:41;;;;;;;7.68;7.07;;;;;;;;;;5009158;28;20395;-82
2022/07/24 11:49:07;;;;;;;7.35;6.75;;;;;;;;;;5009270;28;20270;-81
2022/07/24 11:51:40;;;;;;;11.27;7.07;;;;;;;;;;5006908;28;20187;-80
2022/07/24 11:54:05;;;;;;;7.22;6.72;;;;;;;;;;5020524;28;20330;-83
2022/07/24 11:56:31;;;;;;;7.88;7.15;;;;;;;;;;5002972;28;20275;-82
2022/07/24 11:58:56;;;;;;;8.20;7.50;;;;;;;;;;5001564;28;20179;-82
2022/07/24 12:01:22;;;;;;;8.13;7.30;;;;;;;;;;5004237;28;20230;-81
2022/07/24 12:03:51;;;;;;;7.85;7.15;;;;;;;;;;5003451;28;20176;-83
2022/07/24 12:06:18;;;;;;;15.68;7.95;;;;;;;;;;4999599;28;20183;-82
2022/07/24 12:08:43;;;;;;;7.93;7.30;;;;;;;;;;4999221;28;20309;-79
2022/07/24 12:11:08;;;;;;;7.40;6.80;;;;;;;;;;4999100;28;20233;-82
2022/07/24 12:13:33;;;;;;;8.40;7.57;;;;;;;;;;5003079;28;20274;-82
2022/07/24 12:15:58;;;;;;;7.78;7.07;;;;;;;;;;5001825;28;20204;-82
2022/07/24 12:18:24;;;;;;;7.63;7.03;;;;;;;;;;5003957;28;20263;-82
2022/07/24 12:20:49;;;;;;;8.05;7.43;;;;;;;;;;5000102;28;20175;-80
2022/07/24 12:23:15;;;;;;;8.60;7.80;;;;;;;;;;5006502;28;20232;-82
2022/07/24 12:25:41;;;;;;;7.85;6.97;;;;;;;;;;4998773;28;20184;-83
2022/07/24 12:28:14;;;;;;;8.23;7.47;;;;;;;;;;5001556;28;20184;-81
2022/07/24 12:30:41;;;;;;;7.82;7.18;;;;;;;;;;5003609;28;20219;-82
2022/07/24 12:33:09;;;;;;;8.20;7.50;;;;;;;;;;5002558;28;20173;-84
2022/07/24 12:35:52;;;;;;;7.25;6.72;;;;;;;;;;4999308;28;20211;-83
2022/07/24 12:38:24;;;;;;;8.63;7.10;;;;;;;;;;5001354;28;20179;-83
2022/07/24 12:40:49;;;;;;;7.85;7.25;;;;;;;;;;5002541;28;20176;-83
2022/07/24 12:43:14;;;;;;;10.15;7.60;;;;;;;;;;4998720;28;20188;-81
2022/07/24 12:45:39;;;;;;;8.45;7.75;;;;;;;;;;5001228;28;20182;-83
2022/07/24 12:48:06;;;;;;;8.50;7.75;;;;;;;;;;5002291;28;20184;-82
2022/07/24 12:50:31;;;;;;;8.63;7.70;;;;;;;;;;5001840;28;20374;-82
2022/07/24 12:53:08;;;;;;;9.17;8.37;;;;;;;;;;5001352;28;20253;-82
2022/07/24 12:55:33;;;;;;;8.48;7.70;;;;;;;;;;5000715;28;20474;-83
2022/07/24 12:58:00;;;;;;;7.70;7.10;;;;;;;;;;5001250;28;20295;-81
2022/07/24 13:00:25;;;;;;;8.05;7.45;;;;;;;;;;5001700;28;20274;-83
2022/07/24 13:02:50;;;;;;;8.15;7.45;;;;;;;;;;5001142;28;20287;-82
2022/07/24 13:05:35;;;;;;;13.48;8.20;;;;;;;;;;5002798;28;20182;-83
2022/07/24 13:08:00;;;;;;;8.50;7.63;;;;;;;;;;5001491;28;20230;-83
2022/07/24 13:10:25;;;;;;;7.80;7.13;;;;;;;;;;4999902;28;20262;-83
2022/07/24 13:12:50;;;;;;;8.23;7.57;;;;;;;;;;4999855;28;20435;-83
2022/07/24 13:15:16;;;;;;;9.30;7.33;;;;;;;;;;5001436;28;20203;-83
2022/07/24 13:17:41;;;;;;;7.63;6.97;;;;;;;;;;5000994;28;20429;-83
2022/07/24 13:20:07;;;;;;;7.63;6.90;;;;;;;;;;5001100;28;20195;-80
2022/07/24 13:22:32;;;;;;;7.88;7.28;;;;;;;;;;5003798;28;20183;-83
2022/07/24 13:24:57;;;;;;;8.17;7.50;;;;;;;;;;5005019;28;20207;-84
2022/07/24 13:27:22;;;;;;;8.90;8.20;;;;;;;;;;5000872;28;20496;-81
2022/07/24 13:29:47;;;;;;;7.90;7.20;;;;;;;;;;5005917;28;20470;-84
2022/07/24 13:32:13;;;;;;;8.88;8.00;;;;;;;;;;5005685;28;20187;-83
2022/07/24 13:34:38;;;;;;;7.90;7.30;;;;;;;;;;5007849;28;20175;-80
2022/07/24 13:37:05;;;;;;;7.95;7.25;;;;;;;;;;5006404;28;20460;-82
2022/07/24 13:39:30;;;;;;;8.38;7.65;;;;;;;;;;5011078;28;20188;-84
2022/07/24 13:41:55;;;;;;;8.57;7.70;;;;;;;;;;5008064;28;20285;-83
2022/07/24 13:44:20;;;;;;;7.60;7.03;;;;;;;;;;5010894;28;20183;-83
2022/07/24 13:46:46;;;;;;;8.50;7.63;;;;;;;;;;5008707;28;20429;-83
2022/07/24 13:49:14;;;;;;;7.53;6.82;;;;;;;;;;5009116;28;20183;-83
2022/07/24 13:51:39;;;;;;;8.15;7.45;;;;;;;;;;5012866;28;20176;-83
2022/07/24 13:54:05;;;;;;;7.95;7.22;;;;;;;;;;5012803;28;20234;-84
2022/07/24 13:56:30;;;;;;;8.20;7.60;;;;;;;;;;5013169;28;20211;-84
2022/07/24 13:58:56;;;;;;;8.77;7.93;;;;;;;;;;5009462;28;20184;-83
2022/07/24 14:01:21;;;;;;;8.38;7.53;;;;;;;;;;5003442;28;20310;-82
2022/07/24 14:03:47;;;;;;;8.75;7.72;;;;;;;;;;5009301;28;20243;-84
2022/07/24 14:06:12;;;;;;;8.00;7.40;;;;;;;;;;5011163;28;20184;-83
2022/07/24 14:08:39;;;;;;;7.45;6.85;;;;;;;;;;5026029;28;20436;-84
2022/07/24 14:11:04;;;;;;;8.20;7.47;;;;;;;;;;5010057;28;20187;-83
2022/07/24 14:13:30;;;;;;;8.38;7.70;;;;;;;;;;5012318;28;20361;-84
2022/07/24 14:15:55;;;;;;;8.35;7.65;;;;;;;;;;5011672;28;20215;-84
2022/07/24 14:18:20;;;;;;;8.20;7.50;;;;;;;;;;5017734;28;20207;-82
2022/07/24 14:20:45;;;;;;;7.85;7.15;;;;;;;;;;5005604;28;20171;-84
2022/07/24 14:23:11;;;;;;;8.60;7.80;;;;;;;;;;5009355;28;20246;-83
2022/07/24 14:25:38;;;;;;;8.85;7.93;;;;;;;;;;5008119;28;20184;-82
2022/07/24 14:28:04;;;;;;;7.43;6.82;;;;;;;;;;5012759;28;20237;-84
2022/07/24 14:30:29;;;;;;;8.27;7.53;;;;;;;;;;5010704;28;20195;-83
2022/07/24 14:32:54;;;;;;;8.00;7.20;;;;;;;;;;5018653;28;20186;-82
2022/07/24 14:35:20;;;;;;;8.70;7.40;;;;;;;;;;5013346;28;20280;-84
2022/07/24 14:37:45;;;;;;;8.80;7.57;;;;;;;;;;5007587;28;20188;-84
2022/07/24 14:40:12;;;;;;;10.55;7.80;;;;;;;;;;5008641;28;20277;-82
2022/07/24 14:42:38;;;;;;;7.40;6.90;;;;;;;;;;5008266;28;20263;-83